Time;durP1;ratioP1;P1;durP2;ratioP2;P2;SDS_P1;SDS_P2;PMS_P1;PMS_P2;Temp;Humidity;BMP_temperature;BMP_pressure;BME280_temperature;BME280_humidity;BME280_pressure;Samples;Min_cycle;Max_cycle;Signal;HPM_P1;HPM_P2
2021/09/07 08:50:25;;;;;;;;;5.00;5.00;;;;;30.54;25.24;101563.00;144240;634;132010;-67
2021/09/07 08:53:03;;;;;;;;;4.25;4.25;;;;;31.25;25.39;101541.44;144283;569;131008;-69
2021/09/07 08:55:37;;;;;;;;;6.00;4.25;;;;;30.10;25.85;101543.88;144260;590;130912;-69
2021/09/07 08:58:11;;;;;;;;;4.75;4.75;;;;;31.47;24.60;101537.34;144285;575;130020;-68
2021/09/07 09:00:51;;;;;;;;;7.25;6.75;;;;;32.03;23.50;101534.22;144259;577;130017;-68
2021/09/07 09:03:25;;;;;;;;;9.50;6.25;;;;;29.67;25.03;101556.16;144264;580;131010;-68
2021/09/07 09:06:02;;;;;;;;;3.00;3.00;;;;;30.36;24.68;101564.81;144254;602;130018;-68
2021/09/07 09:08:36;;;;;;;;;5.00;5.00;;;;;31.09;22.66;101569.28;144284;581;130020;-67
2021/09/07 09:11:15;;;;;;;;;5.75;5.75;;;;;30.53;24.46;101561.28;144247;587;131012;-67
2021/09/07 09:13:50;;;;;;;;;8.75;6.25;;;;;29.60;25.88;101553.19;144287;584;130020;-69
2021/09/07 09:16:24;;;;;;;;;3.25;3.25;;;;;30.36;24.50;101564.81;144251;704;132018;-68
2021/09/07 09:19:02;;;;;;;;;4.50;4.50;;;;;29.18;25.40;101567.06;144285;678;130029;-69
2021/09/07 09:21:37;;;;;;;;;6.00;3.25;;;;;29.59;25.39;101561.44;144261;596;131911;-68
2021/09/07 09:24:22;;;;;;;;;6.00;5.00;;;;;29.99;24.85;101565.72;144276;563;131010;-69
2021/09/07 09:27:09;;;;;;;;;6.25;6.25;;;;;28.82;25.78;101570.34;144254;593;130912;-68
2021/09/07 09:29:44;;;;;;;;;3.00;3.00;;;;;28.19;27.14;101579.59;144267;573;130008;-68
2021/09/07 09:32:24;;;;;;;;;3.25;2.00;;;;;28.11;27.87;101576.75;144252;624;131020;-68
2021/09/07 09:35:09;;;;;;;;;6.00;6.00;;;;;29.65;26.63;101567.12;144285;628;130021;-68
2021/09/07 09:38:04;;;;;;;;;6.00;6.00;;;;;31.04;24.90;101568.91;144250;570;131016;-68
2021/09/07 09:40:39;;;;;;;;;5.50;5.50;;;;;31.53;23.47;101563.81;144282;615;131009;-68
2021/09/07 09:43:38;;;;;;;;;6.00;6.00;;;;;29.24;25.61;101562.91;144246;604;132911;-68
2021/09/07 09:46:27;;;;;;;;;7.50;7.50;;;;;30.45;25.13;101563.91;144286;582;130020;-67
2021/09/07 09:49:27;;;;;;;;;7.00;7.00;;;;;31.99;23.22;101560.84;144263;574;131021;-66
2021/09/07 09:52:07;;;;;;;;;8.00;6.50;;;;;31.58;22.10;101565.19;144266;598;131020;-67
2021/09/07 09:54:41;;;;;;;;;6.75;6.25;;;;;31.79;23.00;101559.41;144230;595;132010;-67
2021/09/07 09:57:15;;;;;;;;;6.25;4.25;;;;;32.93;20.49;101563.47;144243;564;132010;-67
2021/09/07 09:59:50;;;;;;;;;6.75;6.75;;;;;32.42;20.60;101558.09;144222;614;132020;-67
2021/09/07 10:02:24;;;;;;;;;4.25;4.25;;;;;32.89;21.22;101554.78;144255;648;133006;-67
2021/09/07 10:04:59;;;;;;;;;5.00;5.00;;;;;33.40;20.62;101551.03;144228;617;131031;-68
2021/09/07 10:07:33;;;;;;;;;6.00;4.50;;;;;33.58;20.98;101562.53;144268;594;132008;-67
2021/09/07 10:10:09;;;;;;;;;2.50;2.00;;;;;32.62;21.44;101555.09;144230;588;131911;-67
2021/09/07 10:12:58;;;;;;;;;4.00;4.00;;;;;32.24;22.08;101541.94;144262;569;132010;-66
2021/09/07 10:15:42;;;;;;;;;3.00;3.00;;;;;32.16;22.30;101542.75;144247;575;131911;-67
2021/09/07 10:18:39;;;;;;;;;4.75;4.75;;;;;32.70;22.53;101538.81;144258;583;132010;-67
2021/09/07 10:23:00;;;;;;;;;5.25;5.25;;;;;29.97;25.02;101532.56;144232;608;133020;-66
2021/09/07 10:26:59;;;;;;;;;6.50;5.75;;;;;28.97;25.83;101532.09;144229;618;132010;-67
2021/09/07 10:29:50;;;;;;;;;4.75;4.75;;;;;29.00;25.60;101534.50;144265;658;131020;-68
2021/09/07 10:32:33;;;;;;;;;6.50;6.00;;;;;30.24;24.87;101531.69;144234;564;132913;-68
2021/09/07 10:35:15;;;;;;;;;7.25;5.75;;;;;31.82;23.50;101519.22;144267;588;131020;-67
2021/09/07 10:38:21;;;;;;;;;4.75;3.75;;;;;29.71;24.60;101538.63;144240;577;131911;-68
2021/09/07 10:40:54;;;;;;;;;5.00;5.00;;;;;29.65;25.13;101534.66;144256;627;132010;-69
2021/09/07 10:43:59;;;;;;;;;5.00;5.00;;;;;29.78;25.44;101534.31;144243;651;131911;-67
2021/09/07 10:47:06;;;;;;;;;4.00;4.00;;;;;31.37;23.20;101531.16;144269;608;131020;-69
2021/09/07 10:49:49;;;;;;;;;6.75;5.75;;;;;31.28;22.33;101532.97;144231;565;132012;-69
2021/09/07 10:52:44;;;;;;;;;5.25;3.75;;;;;31.66;22.66;101530.00;144250;579;131020;-69
2021/09/07 10:55:20;;;;;;;;;5.50;4.25;;;;;28.92;25.51;101532.50;144229;689;131018;-68
2021/09/07 10:57:56;;;;;;;;;4.25;4.00;;;;;29.66;25.18;101524.69;144256;573;132010;-68
2021/09/07 11:00:35;;;;;;;;;6.00;6.00;;;;;29.63;24.68;101528.53;144236;598;132020;-68
2021/09/07 11:03:10;;;;;;;;;7.25;6.00;;;;;30.27;25.22;101530.53;144252;564;143021;-68
2021/09/07 11:05:47;;;;;;;;;5.00;5.00;;;;;29.21;26.17;101523.50;144244;587;131018;-68
2021/09/07 11:08:43;;;;;;;;;10.75;8.00;;;;;29.15;26.44;101518.69;144259;688;131020;-68
2021/09/07 11:11:38;;;;;;;;;5.50;4.00;;;;;29.35;26.49;101523.09;144238;753;132021;-68
2021/09/07 11:14:16;;;;;;;;;8.00;5.75;;;;;29.30;26.88;101519.13;144259;685;132008;-67
2021/09/07 11:16:58;;;;;;;;;8.00;8.00;;;;;29.74;25.59;101508.56;144229;619;132911;-68
2021/09/07 11:19:33;;;;;;;;;7.50;5.25;;;;;30.49;25.29;101503.00;144251;592;131029;-68
2021/09/07 11:22:35;;;;;;;;;6.25;6.25;;;;;30.18;25.77;101494.37;144222;604;132020;-68
2021/09/07 11:25:13;;;;;;;;;3.50;3.50;;;;;28.78;26.91;101501.37;144261;672;132009;-68
2021/09/07 11:28:02;;;;;;;;;4.75;4.75;;;;;27.72;28.83;101505.56;144227;600;132911;-68
2021/09/07 11:30:38;;;;;;;;;6.00;6.00;;;;;27.47;29.31;101508.56;144276;599;131011;-68
2021/09/07 11:33:20;;;;;;;;;7.50;7.50;;;;;27.75;29.77;101499.88;144233;663;132010;-68
2021/09/07 11:36:05;;;;;;;;;6.25;6.25;;;;;27.75;29.55;101506.16;144254;569;132008;-68
2021/09/07 11:38:43;;;;;;;;;7.00;6.00;;;;;29.97;26.28;101508.19;144240;689;132020;-68
2021/09/07 11:41:20;;;;;;;;;8.00;8.00;;;;;30.55;26.20;101499.69;144265;574;132006;-67
2021/09/07 11:43:59;;;;;;;;;9.75;9.50;;;;;29.97;26.98;101492.78;144228;671;132010;-67
2021/09/07 11:46:39;;;;;;;;;10.00;9.75;;;;;28.14;29.69;101500.88;144237;572;132010;-68
2021/09/07 11:49:15;;;;;;;;;8.00;8.00;;;;;28.66;29.05;101499.81;144234;647;132912;-69
2021/09/07 11:51:50;;;;;;;;;8.50;8.50;;;;;29.40;28.53;101492.88;144269;564;131020;-67
2021/09/07 11:54:23;;;;;;;;;9.50;9.50;;;;;30.09;27.86;101493.44;144232;650;131911;-68
2021/09/07 11:57:01;;;;;;;;;10.00;10.00;;;;;29.41;28.65;101482.94;144263;593;131020;-68
2021/09/07 11:59:34;;;;;;;;;14.50;14.50;;;;;29.58;28.77;101486.69;144223;601;132010;-68
2021/09/07 12:02:13;;;;;;;;;14.75;13.00;;;;;29.48;28.55;101489.44;144256;569;131021;-67
2021/09/07 12:05:01;;;;;;;;;10.00;9.00;;;;;29.41;28.45;101493.75;144221;624;132010;-68
2021/09/07 12:07:35;;;;;;;;;10.50;9.00;;;;;29.60;27.90;101492.81;144267;593;131020;-67
2021/09/07 12:10:10;;;;;;;;;10.75;10.50;;;;;29.00;28.90;101488.56;144234;663;131911;-67
2021/09/07 12:12:44;;;;;;;;;11.25;11.25;;;;;29.08;28.93;101487.84;144248;598;131022;-67
2021/09/07 12:15:21;;;;;;;;;10.00;10.00;;;;;29.49;28.82;101483.88;144232;576;131911;-67
2021/09/07 12:17:55;;;;;;;;;10.75;10.75;;;;;30.48;26.82;101482.34;144257;569;131010;-68
2021/09/07 12:20:33;;;;;;;;;12.00;10.25;;;;;30.41;27.21;101481.22;144231;579;132911;-67
2021/09/07 12:23:07;;;;;;;;;7.00;7.00;;;;;30.19;26.50;101483.38;144255;638;131021;-67
2021/09/07 12:25:50;;;;;;;;;9.25;9.25;;;;;30.85;26.79;101484.00;144240;581;132021;-66
2021/09/07 12:28:24;;;;;;;;;18.50;18.50;;;;;30.80;26.77;101482.78;144257;579;132010;-66
2021/09/07 12:31:23;;;;;;;;;21.25;18.50;;;;;31.04;26.20;101482.13;144234;623;132912;-67
2021/09/07 12:33:57;;;;;;;;;10.75;10.25;;;;;30.37;26.62;101479.84;144258;670;131010;-68
2021/09/07 12:36:50;;;;;;;;;12.25;10.75;;;;;30.60;26.48;101484.81;144228;599;132911;-68
2021/09/07 12:39:24;;;;;;;;;9.50;8.50;;;;;30.55;26.77;101478.00;144254;578;131023;-68
2021/09/07 12:41:58;;;;;;;;;10.50;9.25;;;;;30.99;25.93;101473.59;144232;577;132010;-66
2021/09/07 12:44:32;;;;;;;;;10.75;9.50;;;;;31.28;25.47;101477.87;144259;588;132008;-67
2021/09/07 12:47:05;;;;;;;;;8.75;8.75;;;;;31.50;25.14;101469.16;144231;608;132009;-68
2021/09/07 12:49:39;;;;;;;;;12.00;9.00;;;;;31.35;25.74;101465.38;144258;581;132010;-66
2021/09/07 12:52:13;;;;;;;;;8.00;8.00;;;;;30.97;26.00;101460.19;144235;617;132018;-67
2021/09/07 12:54:47;;;;;;;;;10.50;9.50;;;;;31.03;25.78;101469.59;144172;572;131021;-67
2021/09/07 12:57:21;;;;;;;;;9.50;9.00;;;;;30.55;26.83;101467.19;144166;582;131911;-66
2021/09/07 12:59:55;;;;;;;;;13.75;11.75;;;;;30.88;26.08;101459.28;144173;680;132010;-67
2021/09/07 13:02:29;;;;;;;;;12.25;11.50;;;;;30.62;26.23;101461.13;144159;628;132018;-67
2021/09/07 13:05:03;;;;;;;;;10.25;10.00;;;;;30.62;26.40;101461.13;144165;625;131020;-67
2021/09/07 13:07:36;;;;;;;;;11.50;11.50;;;;;30.39;26.37;101457.00;144157;575;131911;-66
2021/09/07 13:10:11;;;;;;;;;10.00;10.00;;;;;30.24;26.92;101463.09;144171;730;131020;-67
2021/09/07 13:12:44;;;;;;;;;11.50;11.50;;;;;30.46;26.84;101461.84;144152;600;132012;-66
2021/09/07 13:15:28;;;;;;;;;9.75;9.75;;;;;30.80;26.53;101458.41;144174;633;131021;-67
2021/09/07 13:18:02;;;;;;;;;11.00;11.00;;;;;29.74;27.21;101451.72;144155;569;131911;-67
2021/09/07 13:20:37;;;;;;;;;11.00;11.00;;;;;30.10;27.14;101451.84;144165;610;132008;-67
2021/09/07 13:23:11;;;;;;;;;11.25;11.25;;;;;30.22;26.66;101444.31;144171;588;132911;-66
2021/09/07 13:25:45;;;;;;;;;11.00;11.00;;;;;30.02;27.00;101449.03;144172;577;131020;-67
2021/09/07 13:28:19;;;;;;;;;12.50;12.50;;;;;30.26;26.91;101453.00;144151;576;132020;-67
2021/09/07 13:30:53;;;;;;;;;12.00;12.00;;;;;30.18;26.94;101457.31;144153;571;132008;-68
2021/09/07 13:33:27;;;;;;;;;15.75;14.25;;;;;29.71;27.58;101454.75;144146;736;132012;-68
2021/09/07 13:36:01;;;;;;;;;14.25;13.25;;;;;29.61;27.60;101459.34;144160;569;143020;-76
2021/09/07 13:38:35;;;;;;;;;14.75;13.50;;;;;29.70;27.72;101459.31;144152;570;132021;-68
2021/09/07 13:41:09;;;;;;;;;11.50;11.50;;;;;29.38;28.32;101452.47;144178;585;132008;-67
2021/09/07 13:43:43;;;;;;;;;10.75;10.75;;;;;29.32;28.47;101452.22;144159;569;131911;-67
2021/09/07 13:46:18;;;;;;;;;13.25;10.75;;;;;29.79;27.86;101462.12;144170;650;131023;-67
2021/09/07 13:48:51;;;;;;;;;11.25;11.25;;;;;29.60;28.34;101450.37;144169;599;131016;-67
2021/09/07 13:51:25;;;;;;;;;10.00;10.00;;;;;29.24;28.97;101443.94;144177;564;131021;-67
2021/09/07 13:53:59;;;;;;;;;11.75;10.00;;;;;28.76;30.24;101452.06;144158;591;132920;-67
2021/09/07 13:56:33;;;;;;;;;13.25;11.75;;;;;29.43;28.72;101453.87;144161;585;132008;-67
2021/09/07 13:59:07;;;;;;;;;11.50;11.50;;;;;29.46;28.99;101459.00;144155;577;132020;-67
2021/09/07 14:01:41;;;;;;;;;10.25;9.00;;;;;29.49;28.75;101462.25;144172;564;131020;-68
2021/09/07 14:04:15;;;;;;;;;13.00;11.50;;;;;29.37;28.43;101460.72;144147;630;132010;-67
2021/09/07 14:06:49;;;;;;;;;11.25;11.00;;;;;29.29;28.75;101464.16;144174;630;131021;-67
2021/09/07 14:09:23;;;;;;;;;11.50;11.50;;;;;28.90;29.32;101464.25;144147;606;132911;-67
2021/09/07 14:11:57;;;;;;;;;11.25;11.25;;;;;29.44;28.84;101461.84;144171;679;132008;-67
2021/09/07 14:14:31;;;;;;;;;11.00;11.00;;;;;29.49;28.44;101467.66;144166;586;132911;-67
2021/09/07 14:17:05;;;;;;;;;12.00;10.75;;;;;29.67;28.48;101462.28;144172;629;131035;-67
2021/09/07 14:19:38;;;;;;;;;10.50;10.50;;;;;29.80;28.26;101467.37;144142;645;132018;-67
2021/09/07 14:22:12;;;;;;;;;10.00;10.00;;;;;29.67;28.50;101472.28;144151;594;132008;-66
2021/09/07 14:24:46;;;;;;;;;9.25;9.25;;;;;29.28;28.86;101459.78;144154;575;131911;-68
2021/09/07 14:27:20;;;;;;;;;9.00;9.00;;;;;29.03;28.97;101461.22;144168;570;132011;-68
2021/09/07 14:29:54;;;;;;;;;11.75;11.75;;;;;28.80;29.72;101466.09;144152;633;131912;-68
2021/09/07 14:32:28;;;;;;;;;10.00;10.00;;;;;27.79;31.38;101464.44;144176;566;131020;-68
2021/09/07 14:35:02;;;;;;;;;12.00;12.00;;;;;28.06;30.80;101454.84;144152;678;131911;-68
2021/09/07 14:37:37;;;;;;;;;9.75;9.75;;;;;28.71;29.81;101465.13;144169;620;132008;-68
2021/09/07 14:40:12;;;;;;;;;10.50;10.50;;;;;29.17;29.19;101465.31;144162;619;132010;-68
2021/09/07 14:42:46;;;;;;;;;8.50;8.50;;;;;29.32;29.23;101476.53;144170;585;131021;-68
2021/09/07 14:45:20;;;;;;;;;11.25;11.25;;;;;28.90;29.90;101474.19;144150;622;131912;-68
2021/09/07 14:47:55;;;;;;;;;9.25;9.25;;;;;28.92;30.04;101474.91;144142;602;132008;-68
2021/09/07 14:50:30;;;;;;;;;8.50;8.00;;;;;28.77;29.82;101471.81;144145;585;132012;-68
2021/09/07 14:53:03;;;;;;;;;14.25;14.25;;;;;29.28;29.51;101461.63;144167;604;132010;-67
2021/09/07 14:55:37;;;;;;;;;11.75;11.75;;;;;29.63;28.97;101463.59;144157;599;132911;-68
2021/09/07 14:58:11;;;;;;;;;13.25;10.75;;;;;29.73;29.26;101465.41;144173;630;132008;-68
2021/09/07 15:00:45;;;;;;;;;16.50;15.50;;;;;29.64;29.29;101464.47;144151;619;132911;-67
2021/09/07 15:03:21;;;;;;;;;14.00;14.00;;;;;29.34;29.71;101467.28;144173;571;131020;-68
2021/09/07 15:05:55;;;;;;;;;12.00;11.00;;;;;29.24;30.90;101465.59;144162;651;131911;-68
2021/09/07 15:08:30;;;;;;;;;13.75;13.25;;;;;29.51;30.61;101462.97;144160;581;142008;-67
2021/09/07 15:11:04;;;;;;;;;14.50;14.00;;;;;29.49;31.96;101461.41;144146;574;132012;-67
2021/09/07 15:13:38;;;;;;;;;16.75;16.75;;;;;29.54;33.87;101462.66;144159;588;131022;-67
2021/09/07 15:16:12;;;;;;;;;18.00;17.00;;;;;29.59;34.38;101474.88;144146;565;132018;-68
2021/09/07 15:18:46;;;;;;;;;17.00;16.50;;;;;29.53;35.27;101474.47;144165;600;132010;-68
2021/09/07 15:21:19;;;;;;;;;15.00;15.00;;;;;29.42;35.34;101476.53;144154;564;132012;-68
2021/09/07 15:23:53;;;;;;;;;14.50;14.00;;;;;29.40;35.13;101462.28;144168;576;132008;-68
2021/09/07 15:26:27;;;;;;;;;15.25;15.25;;;;;29.12;35.78;101463.06;144158;585;131911;-67
2021/09/07 15:29:02;;;;;;;;;15.25;15.25;;;;;28.74;35.22;101464.84;144174;596;131021;-67
2021/09/07 15:31:37;;;;;;;;;17.00;16.25;;;;;28.58;35.57;101464.53;144163;613;132911;-68
2021/09/07 15:34:11;;;;;;;;;14.00;14.00;;;;;28.47;35.81;101466.41;144174;612;132008;-67
2021/09/07 15:36:46;;;;;;;;;14.75;14.00;;;;;28.77;34.43;101458.31;144158;565;131911;-66
2021/09/07 15:39:20;;;;;;;;;14.00;14.00;;;;;28.90;34.24;101458.84;144158;590;132008;-67
2021/09/07 15:41:57;;;;;;;;;13.25;13.25;;;;;28.97;34.47;101459.12;144152;594;133016;-68
2021/09/07 15:44:31;;;;;;;;;15.00;14.50;;;;;29.08;34.30;101453.53;144175;579;132010;-67
2021/09/07 15:47:06;;;;;;;;;15.25;15.00;;;;;28.58;36.84;101451.03;144144;609;132020;-68
2021/09/07 15:49:39;;;;;;;;;16.00;16.00;;;;;28.62;36.93;101445.19;144173;593;131020;-67
2021/09/07 15:52:13;;;;;;;;;18.75;17.00;;;;;28.64;36.52;101448.66;144147;641;132019;-68
2021/09/07 15:54:47;;;;;;;;;12.25;12.25;;;;;28.12;37.47;101440.81;144169;601;132010;-68
2021/09/07 15:57:21;;;;;;;;;12.25;12.25;;;;;26.68;38.23;101442.53;144164;601;132911;-68
2021/09/07 15:59:55;;;;;;;;;18.50;17.00;;;;;26.17;39.25;101452.16;144172;625;131022;-68
2021/09/07 16:02:29;;;;;;;;;14.00;14.00;;;;;26.18;39.18;101451.16;144156;578;132911;-68
2021/09/07 16:05:03;;;;;;;;;17.50;16.25;;;;;27.67;36.78;101441.25;144162;601;131021;-68
2021/09/07 16:07:37;;;;;;;;;15.75;15.75;;;;;27.35;36.89;101442.22;144144;602;133010;-68
2021/09/07 16:10:12;;;;;;;;;15.25;15.25;;;;;27.09;36.93;101442.69;144177;604;131023;-68
2021/09/07 16:12:46;;;;;;;;;16.75;16.75;;;;;28.23;35.42;101445.22;144157;570;132911;-68
2021/09/07 16:15:20;;;;;;;;;14.00;14.00;;;;;28.15;35.29;101448.59;144172;614;131020;-68
2021/09/07 16:17:54;;;;;;;;;14.00;14.00;;;;;27.31;36.96;101449.75;144152;602;132911;-68
2021/09/07 16:20:27;;;;;;;;;13.50;13.50;;;;;26.78;37.95;101447.16;144170;564;132009;-67
2021/09/07 16:23:01;;;;;;;;;14.50;14.00;;;;;26.29;39.33;101444.91;144162;617;132012;-68
2021/09/07 16:25:36;;;;;;;;;14.75;14.00;;;;;25.96;39.57;101449.38;144173;582;132011;-68
2021/09/07 16:28:10;;;;;;;;;17.00;16.75;;;;;27.59;36.14;101447.31;144155;625;131911;-67
2021/09/07 16:30:44;;;;;;;;;15.50;15.50;;;;;28.05;35.14;101447.75;144163;615;131020;-68
2021/09/07 16:33:18;;;;;;;;;14.50;14.50;;;;;28.08;35.50;101444.78;144155;569;131016;-67
2021/09/07 16:35:52;;;;;;;;;14.25;13.00;;;;;28.25;34.26;101439.69;144178;620;131021;-67
2021/09/07 16:38:25;;;;;;;;;14.50;14.25;;;;;27.65;36.07;101435.12;144156;572;132911;-68
2021/09/07 16:40:59;;;;;;;;;14.75;13.25;;;;;27.64;34.98;101433.41;144174;600;131020;-68
2021/09/07 16:43:33;;;;;;;;;9.25;9.25;;;;;28.16;33.85;101428.72;144156;577;132911;-68
2021/09/07 16:46:07;;;;;;;;;12.75;12.75;;;;;28.44;33.34;101425.31;144174;633;132010;-68
2021/09/07 16:48:41;;;;;;;;;10.75;10.75;;;;;28.57;33.66;101430.41;144168;572;132911;-68
2021/09/07 16:51:17;;;;;;;;;12.00;12.00;;;;;28.69;33.51;101430.16;144177;625;131020;-68
2021/09/07 16:53:59;;;;;;;;;12.25;12.25;;;;;28.83;33.32;101428.00;144152;638;131911;-68
2021/09/07 16:56:34;;;;;;;;;16.50;14.75;;;;;28.89;33.03;101435.53;144159;564;131021;-67
2021/09/07 16:59:08;;;;;;;;;13.00;12.00;;;;;28.97;33.39;101434.81;144148;589;132016;-68
2021/09/07 17:01:42;;;;;;;;;14.25;14.25;;;;;28.69;33.91;101437.41;144170;633;132008;-67
2021/09/07 17:04:19;;;;;;;;;14.00;14.00;;;;;28.78;33.46;101433.84;144151;606;131911;-68
2021/09/07 17:06:53;;;;;;;;;13.00;13.00;;;;;28.42;34.65;101428.16;144168;563;132008;-67
2021/09/07 17:09:27;;;;;;;;;14.50;14.50;;;;;27.03;37.08;101418.94;144155;576;131911;-66
2021/09/07 17:12:01;;;;;;;;;15.00;14.25;;;;;27.15;36.27;101434.03;144175;565;131021;-67
2021/09/07 17:14:35;;;;;;;;;11.75;11.75;;;;;27.75;35.21;101425.22;144158;599;132010;-68
2021/09/07 17:17:09;;;;;;;;;17.25;16.50;;;;;28.44;34.26;101420.75;144177;605;131010;-68
2021/09/07 17:19:43;;;;;;;;;15.50;15.50;;;;;28.50;33.97;101425.59;144146;569;132012;-67
2021/09/07 17:22:17;;;;;;;;;14.50;13.75;;;;;28.59;34.35;101420.34;144151;573;132008;-68
2021/09/07 17:24:51;;;;;;;;;13.75;13.75;;;;;28.28;34.08;101420.47;144151;599;132911;-67
2021/09/07 17:27:25;;;;;;;;;18.75;16.75;;;;;28.68;33.29;101417.66;144175;570;131023;-67
2021/09/07 17:29:59;;;;;;;;;15.75;15.75;;;;;28.71;33.23;101427.31;144149;565;132010;-68
2021/09/07 17:38:43;;;;;;;;;14.75;14.75;;;;;28.64;33.94;101426.19;144177;586;131020;-68
2021/09/07 17:41:38;;;;;;;;;14.00;14.00;;;;;28.38;33.62;101426.75;144168;574;131912;-68
2021/09/07 17:44:12;;;;;;;;;12.25;11.25;;;;;28.63;33.72;101435.25;144175;604;132008;-67
2021/09/07 17:46:45;;;;;;;;;7.00;7.00;;;;;28.61;33.34;101434.53;144148;606;132018;-69
2021/09/07 17:49:19;;;;;;;;;12.50;11.25;;;;;27.81;34.60;101421.13;144151;644;132010;-66
2021/09/07 17:51:53;;;;;;;;;9.00;9.00;;;;;26.85;36.20;101424.94;144157;573;132911;-66
2021/09/07 17:54:27;;;;;;;;;8.50;8.50;;;;;27.48;35.35;101434.78;144175;570;131020;-68
2021/09/07 17:57:01;;;;;;;;;11.25;11.25;;;;;28.04;34.11;101435.25;144151;602;132012;-67
2021/09/07 17:59:35;;;;;;;;;9.25;9.25;;;;;26.89;35.62;101438.13;144178;587;131020;-67
2021/09/07 18:02:09;;;;;;;;;7.50;7.50;;;;;26.33;37.29;101429.34;144153;565;131912;-67
2021/09/07 18:04:44;;;;;;;;;13.25;11.25;;;;;27.67;35.05;101425.06;144176;686;131021;-67
2021/09/07 18:07:18;;;;;;;;;11.00;10.00;;;;;27.79;34.58;101429.34;144167;593;132911;-66
2021/09/07 18:09:52;;;;;;;;;10.25;9.25;;;;;27.98;34.43;101436.63;144175;566;131020;-67
2021/09/07 18:12:26;;;;;;;;;14.00;11.25;;;;;27.37;35.66;101432.19;144136;588;141998;-67
2021/09/07 18:15:01;;;;;;;;;9.25;8.00;;;;;27.95;34.66;101426.09;144156;598;131026;-67
2021/09/07 18:17:36;;;;;;;;;11.00;11.00;;;;;27.83;34.63;101425.38;144150;617;132013;-67
2021/09/07 18:20:12;;;;;;;;;11.75;11.50;;;;;27.10;35.78;101433.59;144171;575;131021;-67
2021/09/07 18:22:46;;;;;;;;;12.00;10.25;;;;;27.64;35.52;101438.81;144155;615;131016;-67
2021/09/07 18:25:20;;;;;;;;;10.25;10.25;;;;;27.98;34.80;101427.66;144172;576;132010;-67
2021/09/07 18:27:53;;;;;;;;;6.50;6.50;;;;;27.30;35.49;101425.62;144152;566;131911;-67
2021/09/07 18:30:27;;;;;;;;;8.75;8.25;;;;;28.06;34.24;101433.25;144169;631;131997;-67
2021/09/07 18:33:01;;;;;;;;;8.25;8.25;;;;;27.46;35.27;101430.50;144166;599;131016;-67
2021/09/07 18:35:36;;;;;;;;;8.00;6.50;;;;;28.19;33.68;101433.84;144177;700;132010;-67
2021/09/07 18:38:10;;;;;;;;;11.25;10.75;;;;;28.07;34.41;101432.25;144158;633;131911;-66
2021/09/07 18:40:44;;;;;;;;;8.00;8.00;;;;;28.43;34.07;101429.00;144152;609;132010;-67
2021/09/07 18:43:18;;;;;;;;;9.50;9.25;;;;;28.06;34.86;101433.25;144154;563;131911;-67
2021/09/07 18:45:52;;;;;;;;;11.75;9.75;;;;;27.97;35.73;101439.47;144180;608;131010;-67
2021/09/07 18:48:26;;;;;;;;;13.00;11.00;;;;;27.39;37.39;101443.69;144152;659;132011;-67
2021/09/07 18:51:00;;;;;;;;;11.00;11.00;;;;;26.82;38.60;101449.47;144174;583;131020;-67
2021/09/07 18:53:38;;;;;;;;;7.25;7.25;;;;;27.61;37.67;101449.88;144150;647;132010;-67
2021/09/07 18:56:12;;;;;;;;;8.25;8.25;;;;;27.88;37.28;101443.84;144173;574;131023;-67
2021/09/07 18:58:46;;;;;;;;;9.75;9.75;;;;;26.15;40.88;101451.44;144161;632;131911;-67
2021/09/07 19:01:20;;;;;;;;;8.75;8.75;;;;;26.51;39.21;101453.87;144179;577;131020;-66
2021/09/07 19:03:54;;;;;;;;;12.25;10.50;;;;;27.66;37.31;101455.72;144157;564;131482;-67
2021/09/07 19:06:28;;;;;;;;;11.25;10.25;;;;;28.01;36.84;101459.81;144157;566;132010;-67
2021/09/07 19:09:02;;;;;;;;;12.75;11.00;;;;;27.63;37.31;101464.09;144152;564;131911;-68
2021/09/07 19:11:38;;;;;;;;;8.00;8.00;;;;;27.63;36.41;101454.16;144176;569;131020;-66
2021/09/07 19:14:16;;;;;;;;;7.00;7.00;;;;;27.66;36.79;101443.06;144140;569;145026;-67
2021/09/07 19:16:50;;;;;;;;;8.00;8.00;;;;;27.75;36.53;101441.41;144178;609;131010;-67
2021/09/07 19:19:23;;;;;;;;;9.00;9.00;;;;;27.78;36.04;101449.22;144155;606;131912;-67
2021/09/07 19:21:57;;;;;;;;;8.75;8.75;;;;;27.73;36.03;101459.56;144176;579;131050;-67
2021/09/07 19:24:31;;;;;;;;;10.25;10.25;;;;;27.91;35.42;101456.22;144169;615;132911;-66
2021/09/07 19:27:05;;;;;;;;;9.00;9.00;;;;;27.93;35.74;101454.25;144169;584;131023;-66
2021/09/07 19:29:39;;;;;;;;;9.75;9.75;;;;;28.24;34.88;101454.16;144144;577;132012;-67
2021/09/07 19:32:13;;;;;;;;;10.00;8.75;;;;;28.34;35.14;101457.72;144157;583;131021;-67
2021/09/07 19:34:47;;;;;;;;;10.75;10.25;;;;;28.40;35.64;101461.72;144156;652;131020;-67
2021/09/07 19:37:21;;;;;;;;;11.00;10.50;;;;;26.79;38.77;101454.25;144171;610;132010;-66
2021/09/07 19:39:54;;;;;;;;;9.50;9.50;;;;;26.07;40.60;101455.75;144145;604;132019;-66
2021/09/07 19:42:28;;;;;;;;;10.00;10.00;;;;;25.83;40.69;101454.91;144173;634;131020;-66
2021/09/07 19:45:02;;;;;;;;;10.75;10.00;;;;;26.38;40.03;101462.12;144148;593;132911;-66
2021/09/07 19:47:36;;;;;;;;;12.00;11.00;;;;;27.43;37.83;101455.91;144140;604;162012;-67
2021/09/07 19:50:10;;;;;;;;;17.00;14.00;;;;;27.44;37.94;101457.63;144163;599;132911;-67
2021/09/07 19:52:45;;;;;;;;;12.00;12.00;;;;;27.69;37.89;101471.63;144164;642;132010;-67
2021/09/07 19:55:20;;;;;;;;;8.25;8.25;;;;;27.45;38.36;101469.28;144151;725;132911;-66
2021/09/07 19:57:54;;;;;;;;;10.00;10.00;;;;;27.66;38.22;101477.28;144155;590;131042;-67
2021/09/07 20:00:28;;;;;;;;;10.50;10.50;;;;;27.83;37.84;101473.94;144150;582;132010;-67
2021/09/07 20:03:02;;;;;;;;;13.25;12.25;;;;;27.83;38.51;101473.94;144173;649;132008;-67
2021/09/07 20:05:36;;;;;;;;;15.50;13.00;;;;;27.87;38.75;101472.69;144152;563;132010;-66
2021/09/07 20:08:10;;;;;;;;;14.50;14.50;;;;;27.90;40.40;101468.84;144177;566;131010;-67
2021/09/07 20:10:43;;;;;;;;;16.00;14.00;;;;;27.81;41.10;101465.13;144154;639;132016;-67
2021/09/07 20:13:17;;;;;;;;;10.75;10.75;;;;;27.88;41.67;101476.22;144177;647;131010;-67
2021/09/07 20:15:51;;;;;;;;;13.00;13.00;;;;;27.87;42.41;101450.22;144144;740;132013;-67
2021/09/07 20:18:25;;;;;;;;;13.00;11.75;;;;;26.91;43.75;101442.41;144174;617;131023;-68
2021/09/07 20:20:59;;;;;;;;;12.00;12.00;;;;;25.21;46.69;101445.47;144154;662;132911;-67
2021/09/07 20:23:34;;;;;;;;;11.00;11.00;;;;;25.58;46.22;101437.19;144156;705;131021;-67
2021/09/07 20:26:08;;;;;;;;;10.75;10.75;;;;;26.20;44.39;101437.59;144151;639;132012;-66
2021/09/07 20:28:42;;;;;;;;;11.00;11.00;;;;;26.54;43.78;101444.69;144172;577;131020;-67
2021/09/07 20:31:16;;;;;;;;;15.25;12.25;;;;;25.60;45.70;101450.50;144151;657;131911;-67
2021/09/07 20:33:52;;;;;;;;;11.25;11.25;;;;;26.47;44.25;101445.19;144169;599;132010;-67
2021/09/07 20:36:26;;;;;;;;;13.25;12.50;;;;;26.85;43.73;101449.19;144153;662;131911;-68
2021/09/07 20:39:01;;;;;;;;;9.75;9.25;;;;;27.10;43.57;101447.06;144176;571;131020;-68
2021/09/07 20:41:35;;;;;;;;;12.75;12.50;;;;;27.25;43.58;101449.41;144169;671;131911;-67
2021/09/07 20:44:09;;;;;;;;;11.00;10.25;;;;;27.29;43.04;101443.63;144170;587;132010;-67
2021/09/07 20:46:43;;;;;;;;;10.50;10.50;;;;;27.31;42.69;101454.25;144155;571;131897;-67